Time,TemperatureF,DewpointF,PressureIn,WindDirection,WindDirectionDegrees,WindSpeedMPH,WindSpeedGustMPH,Humidity,HourlyPrecipIn,Conditions,Clouds,dailyrainin,SoftwareType,DateUTC
2013-09-23 00:00:00,44.0,41.5,29.92,West,281,0.0,0.0,91,0.00,,,0.00,Wunderground v.1.15,2013-09-23 04:00:00,
2013-09-23 00:05:00,44.1,41.9,29.92,West,281,0.0,0.0,92,0.00,,,0.00,Wunderground v.1.15,2013-09-23 04:05:00,
2013-09-23 00:15:00,44.7,42.5,29.92,West,281,0.0,0.0,92,0.00,,,0.00,Wunderground v.1.15,2013-09-23 04:15:00,
2013-09-23 00:20:00,45.0,42.5,29.92,West,281,0.0,0.0,91,0.00,,,0.00,Wunderground v.1.15,2013-09-23 04:20:00,
2013-09-23 00:25:00,45.1,42.6,29.92,West,281,0.0,0.0,91,0.00,,,0.00,Wunderground v.1.15,2013-09-23 04:25:00,
2013-09-23 00:30:00,45.0,42.2,29.91,West,281,0.0,0.0,90,0.00,,,0.00,Wunderground v.1.15,2013-09-23 04:30:00,
2013-09-23 09:50:00,46.8,42.2,30.02,West,273,1.0,1.0,84,0.00,,,0.00,Wunderground v.1.15,2013-09-23 13:50:00,
2013-09-23 09:55:00,46.5,42.2,30.02,West,276,1.0,1.0,85,0.00,,,0.00,Wunderground v.1.15,2013-09-23 13:55:00,
2013-09-23 10:00:00,46.6,42.3,30.02,West,276,1.0,1.0,85,0.00,,,0.00,Wunderground v.1.15,2013-09-23 14:00:00,
2013-09-23 10:05:00,47.3,42.7,30.02,West,276,0.0,2.0,84,0.00,,,0.00,Wunderground v.1.15,2013-09-23 14:05:00,
2013-09-23 10:15:00,46.9,42.3,30.03,West,279,1.0,1.0,84,0.00,,,0.00,Wunderground v.1.15,2013-09-23 14:15:00,
2013-09-23 10:20:00,47.5,43.2,30.03,NW,304,0.0,0.0,85,0.00,,,0.00,Wunderground v.1.15,2013-09-23 14:20:00,
2013-09-23 10:30:00,48.0,42.8,30.03,WNW,300,0.0,0.0,82,0.00,,,0.00,Wunderground v.1.15,2013-09-23 14:30:00,
2013-09-23 10:35:00,48.5,43.3,30.03,West,265,0.0,0.0,82,0.00,,,0.00,Wunderground v.1.15,2013-09-23 14:35:00,
2013-09-23 10:45:00,49.0,42.4,30.03,SW,217,1.0,1.0,78,0.00,,,0.00,Wunderground v.1.15,2013-09-23 14:45:00,
2013-09-23 10:50:00,49.1,42.5,30.03,South,188,0.0,0.0,78,0.00,,,0.00,Wunderground v.1.15,2013-09-23 14:50:00,
2013-09-23 10:55:00,49.2,42.3,30.03,SSE,159,0.0,0.0,77,0.00,,,0.00,Wunderground v.1.15,2013-09-23 14:55:00,
2013-09-23 11:05:00,48.3,42.1,30.03,North,5,0.0,0.0,79,0.00,,,0.00,Wunderground v.1.15,2013-09-23 15:05:00,
2013-09-23 11:15:00,48.3,41.4,30.04,North,5,0.0,0.0,77,0.00,,,0.00,Wunderground v.1.15,2013-09-23 15:15:00,
2013-09-23 11:20:00,49.2,43.0,30.04,North,355,0.0,0.0,79,0.00,,,0.00,Wunderground v.1.15,2013-09-23 15:20:00,
2013-09-23 11:35:00,48.9,42.3,30.04,NW,321,0.0,0.0,78,0.00,,,0.00,Wunderground v.1.15,2013-09-23 15:35:00,
2013-09-23 11:45:00,48.4,42.5,30.05,NW,319,0.0,0.0,80,0.00,,,0.00,Wunderground v.1.15,2013-09-23 15:45:00,
2013-09-23 11:55:00,49.3,42.7,30.05,NW,320,0.0,4.0,78,0.00,,,0.00,Wunderground v.1.15,2013-09-23 15:55:00,
2013-09-23 12:00:00,49.1,42.5,30.04,NW,316,1.0,1.0,78,0.00,,,0.00,Wunderground v.1.15,2013-09-23 16:00:00,
2013-09-23 12:05:00,48.9,42.0,30.04,NW,316,1.0,1.0,77,0.00,,,0.00,Wunderground v.1.15,2013-09-23 16:05:00,
2013-09-23 12:15:00,50.6,43.3,30.03,West,264,1.0,5.0,76,0.00,,,0.00,Wunderground v.1.15,2013-09-23 16:15:00,
2013-09-23 12:20:00,49.9,43.0,30.03,West,271,1.0,1.0,77,0.00,,,0.00,Wunderground v.1.15,2013-09-23 16:20:00,
2013-09-23 12:30:00,50.3,43.7,30.04,West,274,1.0,2.0,78,0.00,,,0.00,Wunderground v.1.15,2013-09-23 16:30:00,
2013-09-23 12:35:00,50.4,44.8,30.04,North,5,2.0,2.0,81,0.00,,,0.00,Wunderground v.1.15,2013-09-23 16:35:00,
2013-09-23 12:45:00,52.0,44.7,30.03,NNW,344,2.0,4.0,76,0.00,,,0.00,Wunderground v.1.15,2013-09-23 16:45:00,
2013-09-23 12:50:00,52.0,42.9,30.03,NNW,344,1.0,4.0,71,0.00,,,0.00,Wunderground v.1.15,2013-09-23 16:50:00,
2013-09-23 12:55:00,52.0,44.7,30.03,NNW,344,0.0,4.0,76,0.00,,,0.00,Wunderground v.1.15,2013-09-23 16:55:00,
2013-09-23 13:05:00,53.4,45.0,30.02,West,277,2.0,2.0,73,0.00,,,0.00,Wunderground v.1.15,2013-09-23 17:05:00,
2013-09-23 13:15:00,53.5,44.3,30.02,NNW,348,1.0,2.0,71,0.00,,,0.00,Wunderground v.1.15,2013-09-23 17:15:00,
2013-09-23 13:25:00,53.3,46.3,30.02,NNW,344,0.0,1.0,77,0.00,,,0.00,Wunderground v.1.15,2013-09-23 17:25:00,
2013-09-23 13:30:00,54.1,45.3,30.02,WSW,248,0.0,0.0,72,0.00,,,0.00,Wunderground v.1.15,2013-09-23 17:30:00,
2013-09-23 13:35:00,54.1,44.2,30.02,West,265,1.0,1.0,69,0.00,,,0.00,Wunderground v.1.15,2013-09-23 17:35:00,
2013-09-23 13:45:00,53.9,44.7,30.02,SSW,192,0.0,1.0,71,0.00,,,0.00,Wunderground v.1.15,2013-09-23 17:45:00,
2013-09-23 13:50:00,53.9,43.6,30.02,SE,133,0.0,2.0,68,0.00,,,0.00,Wunderground v.1.15,2013-09-23 17:50:00,
2013-09-23 14:00:00,54.7,44.7,30.01,NE,44,0.0,0.0,69,0.00,,,0.00,Wunderground v.1.15,2013-09-23 18:00:00,
2013-09-23 14:05:00,54.5,44.2,30.01,NNE,27,0.0,3.0,68,0.00,,,0.00,Wunderground v.1.15,2013-09-23 18:05:00,
2013-09-23 14:15:00,54.4,44.4,30.01,East,84,1.0,1.0,69,0.00,,,0.00,Wunderground v.1.15,2013-09-23 18:15:00,
2013-09-23 14:25:00,54.8,44.8,30.01,West,275,1.0,4.0,69,0.00,,,0.00,Wunderground v.1.15,2013-09-23 18:25:00,
2013-09-23 14:30:00,56.0,47.1,30.01,West,275,1.0,1.0,72,0.00,,,0.00,Wunderground v.1.15,2013-09-23 18:30:00,
2013-09-23 14:35:00,55.7,44.5,30.01,West,267,1.0,1.0,66,0.00,,,0.00,Wunderground v.1.15,2013-09-23 18:35:00,
2013-09-23 14:45:00,54.8,45.9,30.00,West,274,1.0,1.0,72,0.00,,,0.00,Wunderground v.1.15,2013-09-23 18:45:00,
2013-09-23 14:50:00,55.4,45.4,30.00,West,271,2.0,5.0,69,0.00,,,0.00,Wunderground v.1.15,2013-09-23 18:50:00,
2013-09-23 14:55:00,55.3,44.9,30.00,West,273,3.0,5.0,68,0.00,,,0.00,Wunderground v.1.15,2013-09-23 18:55:00,
2013-09-23 15:05:00,55.0,44.2,30.00,West,275,1.0,4.0,67,0.00,,,0.00,Wunderground v.1.15,2013-09-23 19:05:00,
2013-09-23 15:15:00,54.4,44.4,30.00,West,271,2.0,4.0,69,0.00,,,0.00,Wunderground v.1.15,2013-09-23 19:15:00,
2013-09-23 15:20:00,54.5,44.2,30.00,West,275,1.0,1.0,68,0.00,,,0.00,Wunderground v.1.15,2013-09-23 19:20:00,
2013-09-23 15:30:00,54.7,46.2,30.00,West,276,3.0,3.0,73,0.00,,,0.00,Wunderground v.1.15,2013-09-23 19:30:00,
2013-09-23 15:35:00,55.4,45.4,30.00,West,276,3.0,6.0,69,0.00,,,0.00,Wunderground v.1.15,2013-09-23 19:35:00,
2013-09-23 15:45:00,54.1,43.8,30.00,West,275,2.0,4.0,68,0.00,,,0.00,Wunderground v.1.15,2013-09-23 19:45:00,
2013-09-23 15:55:00,55.0,46.1,30.00,West,277,4.0,4.0,72,0.00,,,0.00,Wunderground v.1.15,2013-09-23 19:55:00,
2013-09-23 16:00:00,54.5,45.3,30.00,West,281,3.0,3.0,71,0.00,,,0.00,Wunderground v.1.15,2013-09-23 20:00:00,
2013-09-23 16:05:00,54.2,45.4,30.00,West,272,4.0,4.0,72,0.00,,,0.00,Wunderground v.1.15,2013-09-23 20:05:00,
2013-09-23 16:15:00,53.7,43.8,30.00,West,269,5.0,9.0,69,0.00,,,0.00,Wunderground v.1.15,2013-09-23 20:15:00,
2013-09-23 16:20:00,53.9,45.1,30.00,West,279,5.0,10.0,72,0.00,,,0.00,Wunderground v.1.15,2013-09-23 20:20:00,
2013-09-23 16:25:00,53.8,45.0,30.00,West,279,3.0,10.0,72,0.00,,,0.00,Wunderground v.1.15,2013-09-23 20:25:00,
2013-09-23 16:35:00,53.6,44.8,30.00,West,281,5.0,7.0,72,0.00,,,0.00,Wunderground v.1.15,2013-09-23 20:35:00,
2013-09-23 16:45:00,53.3,44.9,30.01,West,270,4.0,5.0,73,0.00,,,0.00,Wunderground v.1.15,2013-09-23 20:45:00,
2013-09-23 16:50:00,53.3,44.9,30.01,West,281,4.0,4.0,73,0.00,,,0.00,Wunderground v.1.15,2013-09-23 20:50:00,
2013-09-23 17:00:00,52.7,44.3,30.01,West,280,5.0,6.0,73,0.00,,,0.00,Wunderground v.1.15,2013-09-23 21:00:00,
2013-09-23 17:05:00,52.2,44.2,30.01,WNW,282,6.0,6.0,74,0.00,,,0.00,Wunderground v.1.15,2013-09-23 21:05:00,
2013-09-23 17:15:00,51.9,43.9,30.02,West,272,4.0,7.0,74,0.00,,,0.00,Wunderground v.1.15,2013-09-23 21:15:00,
2013-09-23 17:20:00,51.7,43.7,30.02,WNW,296,4.0,6.0,74,0.00,,,0.00,Wunderground v.1.15,2013-09-23 21:20:00,
2013-09-23 17:25:00,51.3,43.3,30.02,WNW,283,5.0,6.0,74,0.00,,,0.00,Wunderground v.1.15,2013-09-23 21:25:00,
2013-09-23 17:35:00,50.8,43.5,30.02,West,279,6.0,6.0,76,0.00,,,0.00,Wunderground v.1.15,2013-09-23 21:35:00,
2013-09-23 17:45:00,50.5,43.6,30.03,WNW,289,3.0,5.0,77,0.00,,,0.00,Wunderground v.1.15,2013-09-23 21:45:00,
2013-09-23 17:50:00,50.3,43.4,30.03,WNW,285,3.0,3.0,77,0.00,,,0.00,Wunderground v.1.15,2013-09-23 21:50:00,
2013-09-23 18:00:00,50.0,43.4,30.04,WNW,286,3.0,4.0,78,0.00,,,0.00,Wunderground v.1.15,2013-09-23 22:00:00,
2013-09-23 18:05:00,49.8,43.5,30.04,West,274,3.0,4.0,79,0.00,,,0.00,Wunderground v.1.15,2013-09-23 22:05:00,
2013-09-23 18:15:00,49.5,42.9,30.04,West,277,3.0,3.0,78,0.00,,,0.00,Wunderground v.1.15,2013-09-23 22:15:00,
2013-09-23 18:20:00,49.3,43.1,30.04,West,276,3.0,3.0,79,0.00,,,0.00,Wunderground v.1.15,2013-09-23 22:20:00,
2013-09-23 18:25:00,49.1,43.2,30.04,West,275,3.0,3.0,80,0.00,,,0.00,Wunderground v.1.15,2013-09-23 22:25:00,
2013-09-23 18:35:00,48.8,42.9,30.05,West,275,2.0,2.0,80,0.00,,,0.00,Wunderground v.1.15,2013-09-23 22:35:00,
2013-09-23 18:45:00,48.5,42.6,30.05,West,275,2.0,6.0,80,0.00,,,0.00,Wunderground v.1.15,2013-09-23 22:45:00,
2013-09-23 18:55:00,48.3,42.7,30.05,West,277,2.0,3.0,81,0.00,,,0.00,Wunderground v.1.15,2013-09-23 22:55:00,
2013-09-23 19:00:00,48.3,42.7,30.05,WNW,294,2.0,4.0,81,0.00,,,0.00,Wunderground v.1.15,2013-09-23 23:00:00,
2013-09-23 19:05:00,48.2,43.9,30.05,West,266,2.0,5.0,85,0.00,,,0.00,Wunderground v.1.15,2013-09-23 23:05:00,
2013-09-23 19:15:00,48.0,42.4,30.04,West,269,2.0,4.0,81,0.00,,,0.00,Wunderground v.1.15,2013-09-23 23:15:00,
2013-09-23 19:20:00,47.9,42.3,30.04,West,269,2.0,2.0,81,0.00,,,0.00,Wunderground v.1.15,2013-09-23 23:20:00,
2013-09-23 19:30:00,47.8,42.3,30.04,West,277,3.0,3.0,81,0.00,,,0.00,Wunderground v.1.15,2013-09-23 23:30:00,
2013-09-23 19:35:00,47.7,42.5,30.04,West,271,3.0,4.0,82,0.00,,,0.00,Wunderground v.1.15,2013-09-23 23:35:00,
2013-09-23 19:45:00,47.6,42.4,30.05,WNW,300,3.0,5.0,82,0.00,,,0.00,Wunderground v.1.15,2013-09-23 23:45:00,
2013-09-23 19:50:00,47.6,42.4,30.05,WNW,292,3.0,3.0,82,0.00,,,0.00,Wunderground v.1.15,2013-09-23 23:50:00,
2013-09-23 19:55:00,47.5,42.3,30.05,WNW,288,2.0,3.0,82,0.00,,,0.00,Wunderground v.1.15,2013-09-23 23:55:00,
2013-09-23 20:00:00,47.5,42.3,30.05,West,281,2.0,3.0,82,0.00,,,0.00,Wunderground v.1.15,2013-09-24 00:00:00,
2013-09-23 20:05:00,47.4,42.2,30.05,West,281,2.0,3.0,82,0.00,,,0.00,Wunderground v.1.15,2013-09-24 00:05:00,
2013-09-23 20:15:00,47.4,42.2,30.05,West,280,1.0,4.0,82,0.00,,,0.00,Wunderground v.1.15,2013-09-24 00:15:00,
2013-09-23 20:20:00,47.3,42.4,30.05,West,280,1.0,1.0,83,0.00,,,0.00,Wunderground v.1.15,2013-09-24 00:20:00,
2013-09-23 20:30:00,47.3,42.4,30.05,West,280,1.0,1.0,83,0.00,,,0.00,Wunderground v.1.15,2013-09-24 00:30:00,
2013-09-23 20:35:00,47.3,42.4,30.05,West,280,1.0,1.0,83,0.00,,,0.00,Wunderground v.1.15,2013-09-24 00:35:00,
2013-09-23 20:45:00,47.1,42.2,30.05,West,264,1.0,4.0,83,0.00,,,0.00,Wunderground v.1.15,2013-09-24 00:45:00,
2013-09-23 20:55:00,47.0,42.1,30.05,West,273,2.0,2.0,83,0.00,,,0.00,Wunderground v.1.15,2013-09-24 00:55:00,
2013-09-23 21:00:00,47.0,41.8,30.05,West,279,2.0,2.0,82,0.00,,,0.00,Wunderground v.1.15,2013-09-24 01:00:00,
2013-09-23 21:05:00,47.0,41.8,30.05,West,279,2.0,4.0,82,0.00,,,0.00,Wunderground v.1.15,2013-09-24 01:05:00,
2013-09-23 21:15:00,46.9,41.7,30.05,West,272,2.0,4.0,82,0.00,,,0.00,Wunderground v.1.15,2013-09-24 01:15:00,
2013-09-23 21:20:00,46.9,42.0,30.05,West,273,2.0,2.0,83,0.00,,,0.00,Wunderground v.1.15,2013-09-24 01:20:00,
2013-09-23 21:30:00,46.8,41.6,30.05,West,273,1.0,3.0,82,0.00,,,0.00,Wunderground v.1.15,2013-09-24 01:30:00,
2013-09-23 21:35:00,46.8,41.6,30.05,West,273,1.0,3.0,82,0.00,,,0.00,Wunderground v.1.15,2013-09-24 01:35:00,
2013-09-23 21:45:00,46.5,41.3,30.05,West,273,1.0,1.0,82,0.00,,,0.00,Wunderground v.1.15,2013-09-24 01:45:00,
2013-09-23 21:50:00,46.4,41.2,30.05,West,273,1.0,4.0,82,0.00,,,0.00,Wunderground v.1.15,2013-09-24 01:50:00,
2013-09-23 21:55:00,46.2,41.3,30.05,West,274,2.0,4.0,83,0.00,,,0.00,Wunderground v.1.15,2013-09-24 01:55:00,
2013-09-23 22:05:00,45.8,40.9,30.05,West,274,1.0,4.0,83,0.00,,,0.00,Wunderground v.1.15,2013-09-24 02:05:00,
2013-09-23 22:15:00,45.8,41.2,30.05,West,274,1.0,1.0,84,0.00,,,0.00,Wunderground v.1.15,2013-09-24 02:15:00,
2013-09-23 22:25:00,45.8,41.2,30.05,West,274,0.0,0.0,84,0.00,,,0.00,Wunderground v.1.15,2013-09-24 02:25:00,
2013-09-23 22:30:00,45.7,41.4,30.06,West,274,0.0,0.0,85,0.00,,,0.00,Wunderground v.1.15,2013-09-24 02:30:00,
2013-09-23 22:35:00,45.5,41.6,30.06,West,274,0.0,0.0,86,0.00,,,0.00,Wunderground v.1.15,2013-09-24 02:35:00,
2013-09-23 22:45:00,45.0,41.1,30.06,West,274,0.0,0.0,86,0.00,,,0.00,Wunderground v.1.15,2013-09-24 02:45:00,
2013-09-23 22:50:00,44.3,40.4,30.06,West,274,0.0,0.0,86,0.00,,,0.00,Wunderground v.1.15,2013-09-24 02:50:00,
2013-09-23 23:00:00,42.9,39.3,30.06,West,274,0.0,0.0,87,0.00,,,0.00,Wunderground v.1.15,2013-09-24 03:00:00,
2013-09-23 23:05:00,42.3,39.0,30.06,West,274,0.0,0.0,88,0.00,,,0.00,Wunderground v.1.15,2013-09-24 03:05:00,
2013-09-23 23:15:00,41.4,38.7,30.06,West,273,0.0,0.0,90,0.00,,,0.00,Wunderground v.1.15,2013-09-24 03:15:00,
2013-09-23 23:25:00,40.7,38.0,30.06,West,274,0.0,0.0,90,0.00,,,0.00,Wunderground v.1.15,2013-09-24 03:25:00,
2013-09-23 23:30:00,40.4,38.0,30.06,West,274,0.0,0.0,91,0.00,,,0.00,Wunderground v.1.15,2013-09-24 03:30:00,
2013-09-23 23:35:00,40.3,37.9,30.06,West,274,0.0,0.0,91,0.00,,,0.00,Wunderground v.1.15,2013-09-24 03:35:00,
2013-09-23 23:45:00,40.1,38.0,30.06,West,274,0.0,0.0,92,0.00,,,0.00,Wunderground v.1.15,2013-09-24 03:45:00,
2013-09-23 23:50:00,40.0,37.9,30.06,West,274,0.0,0.0,92,0.00,,,0.00,Wunderground v.1.15,2013-09-24 03:50:00,
2013-09-23 23:55:00,40.1,38.2,30.06,West,274,0.0,0.0,93,0.00,,,0.00,Wunderground v.1.15,2013-09-24 03:55:00,